Time;durP1;ratioP1;P1;durP2;ratioP2;P2;SDS_P1;SDS_P2;PMS_P1;PMS_P2;Temp;Humidity;BMP_temperature;BMP_pressure;BME280_temperature;BME280_humidity;BME280_pressure;Samples;Min_cycle;Max_cycle;Signal;HPM_P1;HPM_P2
2021/12/19 00:01:44;;;;;;;5.93;1.48;;;9.40;90.90;;;;;;5073141;28;20040;-78
2021/12/19 00:04:28;;;;;;;3.83;1.20;;;9.40;91.20;;;;;;5072998;28;20020;-78
2021/12/19 00:09:41;;;;;;;3.63;1.38;;;9.40;91.50;;;;;;5071903;28;20477;-78
2021/12/19 00:12:09;;;;;;;2.53;1.20;;;9.30;91.70;;;;;;5074394;28;20480;-80
2021/12/19 00:14:35;;;;;;;7.63;1.40;;;9.40;91.70;;;;;;5093245;28;20440;-78
2021/12/19 00:17:03;;;;;;;8.60;1.50;;;9.40;91.70;;;;;;5092937;28;20103;-78
2021/12/19 00:19:30;;;;;;;4.68;1.25;;;9.40;92.10;;;;;;5093317;28;20448;-78
2021/12/19 00:21:57;;;;;;;7.13;1.50;;;9.30;91.90;;;;;;5092502;28;20039;-77
2021/12/19 00:24:25;;;;;;;4.72;1.52;;;9.40;92.00;;;;;;5092618;28;20054;-78
2021/12/19 00:26:51;;;;;;;3.85;1.23;;;9.30;92.20;;;;;;5093148;28;20036;-77
2021/12/19 00:29:18;;;;;;;4.93;1.38;;;9.30;92.50;;;;;;5092698;28;20048;-78
2021/12/19 00:31:45;;;;;;;4.10;1.17;;;9.30;92.60;;;;;;5092714;28;20031;-78
2021/12/19 00:34:15;;;;;;;4.60;1.20;;;9.30;92.90;;;;;;5092391;28;20039;-77
2021/12/19 00:36:42;;;;;;;6.07;1.20;;;9.20;92.90;;;;;;5092172;28;20472;-75
2021/12/19 00:39:08;;;;;;;4.88;1.23;;;9.30;92.70;;;;;;5092966;28;20379;-76
2021/12/19 00:41:38;;;;;;;7.70;1.45;;;9.30;92.90;;;;;;5092693;28;20043;-77
2021/12/19 00:44:11;;;;;;;5.72;1.20;;;9.30;92.70;;;;;;5092791;28;20161;-76
2021/12/19 00:46:49;;;;;;;3.90;1.17;;;9.30;93.00;;;;;;5092172;28;20051;-75
2021/12/19 00:49:17;;;;;;;4.22;1.27;;;9.20;93.40;;;;;;5092035;28;20055;-75
2021/12/19 00:51:44;;;;;;;4.75;1.23;;;9.20;93.30;;;;;;5092072;28;20032;-75
2021/12/19 00:54:10;;;;;;;4.18;1.13;;;9.20;93.10;;;;;;5073985;28;20028;-75
2021/12/19 00:56:42;;;;;;;5.85;1.35;;;9.20;93.20;;;;;;5092245;28;20068;-75
2021/12/19 00:59:10;;;;;;;5.18;1.20;;;9.20;93.30;;;;;;5092693;28;20040;-76
2021/12/19 01:01:38;;;;;;;5.50;1.60;;;9.20;93.30;;;;;;5092066;28;20431;-76
2021/12/19 01:04:16;;;;;;;2.97;1.15;;;9.20;93.40;;;;;;5074064;28;20133;-76
2021/12/19 01:06:44;;;;;;;6.00;1.40;;;9.10;93.70;;;;;;5074138;28;20499;-76
2021/12/19 01:09:11;;;;;;;6.85;1.77;;;9.00;93.90;;;;;;5092809;28;20083;-76
2021/12/19 01:11:38;;;;;;;4.05;1.20;;;9.10;93.70;;;;;;5092516;28;20082;-76
2021/12/19 01:14:07;;;;;;;5.10;1.50;;;9.10;93.70;;;;;;5073885;28;20047;-76
2021/12/19 01:16:33;;;;;;;7.75;1.45;;;9.10;93.80;;;;;;5092358;28;20054;-76
2021/12/19 01:18:59;;;;;;;5.95;1.20;;;9.10;94.00;;;;;;5092149;28;20367;-76
2021/12/19 01:21:26;;;;;;;6.03;1.50;;;9.10;93.90;;;;;;5091375;28;20040;-75
2021/12/19 01:23:52;;;;;;;4.60;1.25;;;9.10;93.70;;;;;;5074114;28;20032;-76
2021/12/19 01:26:19;;;;;;;4.53;1.73;;;9.00;93.90;;;;;;5092170;28;20024;-76
2021/12/19 01:28:45;;;;;;;4.65;1.20;;;9.00;93.90;;;;;;5091947;28;20385;-75
2021/12/19 01:31:15;;;;;;;4.50;1.70;;;8.90;94.00;;;;;;5092286;28;20077;-76
2021/12/19 01:33:42;;;;;;;7.18;1.25;;;8.90;94.10;;;;;;5092303;28;20091;-76
2021/12/19 01:36:31;;;;;;;11.27;2.08;;;8.90;94.00;;;;;;5091009;28;20032;-76
2021/12/19 01:38:57;;;;;;;4.90;1.40;;;8.80;94.10;;;;;;5092222;28;20020;-76
2021/12/19 01:41:26;;;;;;;6.67;1.93;;;8.70;94.60;;;;;;5091791;28;20397;-76
2021/12/19 01:43:53;;;;;;;6.95;1.75;;;8.90;93.90;;;;;;5092179;28;20024;-76
2021/12/19 01:46:19;;;;;;;;;;;9.00;93.70;;;;;;5092151;28;20024;-76
2021/12/19 01:48:46;;;;;;;6.47;1.20;;;9.00;94.00;;;;;;5095396;28;19950;-75
2021/12/19 01:51:12;;;;;;;7.73;1.37;;;8.90;94.00;;;;;;5095919;28;20572;-76
2021/12/19 01:53:38;;;;;;;7.20;1.13;;;8.90;93.90;;;;;;5095662;28;20029;-78
2021/12/19 01:56:07;;;;;;;5.43;1.60;;;8.90;94.30;;;;;;5096053;28;20047;-75
2021/12/19 01:58:34;;;;;;;3.80;1.75;;;8.90;94.00;;;;;;5095650;28;20059;-78
2021/12/19 02:01:01;;;;;;;4.95;1.30;;;8.90;94.20;;;;;;5077873;28;20036;-76
2021/12/19 02:03:27;;;;;;;2.88;1.00;;;8.80;94.40;;;;;;5095973;28;20136;-78
2021/12/19 02:05:53;;;;;;;5.35;1.30;;;8.90;94.60;;;;;;5094402;28;20031;-77
2021/12/19 02:08:28;;;;;;;6.13;1.10;;;8.80;94.50;;;;;;5095280;28;20107;-78
2021/12/19 02:10:54;;;;;;;4.57;1.35;;;8.90;93.90;;;;;;5077417;28;20077;-76
2021/12/19 02:13:22;;;;;;;3.45;1.27;;;9.00;94.00;;;;;;5093853;28;20149;-76
2021/12/19 02:15:50;;;;;;;5.03;1.65;;;8.90;94.50;;;;;;5095297;28;20103;-76
2021/12/19 02:18:19;;;;;;;6.07;1.20;;;8.90;94.70;;;;;;5095165;28;20458;-76
2021/12/19 02:20:52;;;;;;;8.40;1.40;;;8.90;95.00;;;;;;5095320;28;21868;-75
2021/12/19 02:23:27;;;;;;;4.32;1.30;;;8.90;94.50;;;;;;5095668;28;20029;-80
2021/12/19 02:25:57;;;;;;;3.30;1.00;;;8.80;94.50;;;;;;5095271;28;20027;-77
2021/12/19 02:28:24;;;;;;;5.75;1.65;;;8.80;94.70;;;;;;5094994;28;20051;-76
2021/12/19 02:30:50;;;;;;;4.80;1.17;;;8.80;95.30;;;;;;5095170;28;20492;-77
2021/12/19 02:33:22;;;;;;;5.10;1.40;;;8.70;94.80;;;;;;5077841;28;20024;-77
2021/12/19 02:36:02;;;;;;;6.38;1.40;;;8.70;94.70;;;;;;5094927;28;20123;-76
2021/12/19 02:39:09;;;;;;;5.85;1.20;;;8.70;94.90;;;;;;5095343;28;20016;-76
2021/12/19 02:49:30;;;;;;;4.93;1.30;;;8.50;95.00;;;;;;5094925;28;20051;-76
2021/12/19 02:51:58;;;;;;;6.78;1.52;;;8.50;95.40;;;;;;5094883;28;20020;-76
2021/12/19 02:54:25;;;;;;;5.82;1.40;;;8.50;95.70;;;;;;5094632;28;20105;-76
2021/12/19 02:56:51;;;;;;;4.88;1.15;;;8.50;95.90;;;;;;5094444;28;20082;-78
2021/12/19 02:59:19;;;;;;;4.57;1.10;;;8.50;95.80;;;;;;5093646;28;20078;-77
2021/12/19 03:01:46;;;;;;;4.05;1.30;;;8.50;95.60;;;;;;5094422;28;20043;-76
2021/12/19 03:04:13;;;;;;;3.38;1.23;;;8.50;95.30;;;;;;5094420;28;20020;-76
2021/12/19 03:06:47;;;;;;;6.03;1.10;;;8.50;95.30;;;;;;5094233;28;20103;-76
2021/12/19 03:09:20;;;;;;;4.30;1.30;;;8.50;95.10;;;;;;5076001;28;20020;-76
2021/12/19 03:20:11;;;;;;;8.05;1.50;;;8.30;95.50;;;;;;5012385;28;20151;-77
2021/12/19 03:22:38;;;;;;;6.18;1.20;;;8.30;95.60;;;;;;5012397;28;20104;-76
2021/12/19 03:25:05;;;;;;;2.95;1.30;;;8.30;95.60;;;;;;4995424;28;20033;-77
2021/12/19 03:27:31;;;;;;;;;;;8.30;95.40;;;;;;5012533;28;20068;-77
2021/12/19 03:29:57;;;;;;;4.80;1.30;;;8.30;95.30;;;;;;5012033;28;19905;-76
2021/12/19 03:32:25;;;;;;;4.47;1.30;;;8.30;95.00;;;;;;5012340;28;20112;-76
2021/12/19 03:34:51;;;;;;;3.95;1.10;;;8.30;95.00;;;;;;5011706;28;20069;-76
2021/12/19 03:37:18;;;;;;;6.75;1.33;;;8.40;95.00;;;;;;5011773;28;20108;-76
2021/12/19 03:39:56;;;;;;;4.57;1.48;;;8.50;94.40;;;;;;5011551;28;20041;-76
2021/12/19 03:42:24;;;;;;;3.85;1.27;;;8.50;94.50;;;;;;5011511;28;20092;-77
2021/12/19 03:44:51;;;;;;;3.03;1.02;;;8.60;94.40;;;;;;5011706;28;20034;-77
2021/12/19 03:47:20;;;;;;;2.45;1.10;;;8.50;94.60;;;;;;5011528;28;20030;-77
2021/12/19 03:49:46;;;;;;;3.45;1.27;;;8.50;94.60;;;;;;5011765;28;20034;-76
2021/12/19 03:52:13;;;;;;;5.28;1.40;;;8.60;94.30;;;;;;5062423;28;20366;-76
2021/12/19 03:54:39;;;;;;;4.00;1.52;;;8.60;93.90;;;;;;5073879;28;20074;-76
2021/12/19 03:57:06;;;;;;;4.70;1.05;;;8.60;94.30;;;;;;5073559;28;20048;-76
2021/12/19 03:59:32;;;;;;;3.40;1.10;;;8.60;94.00;;;;;;5055107;28;20029;-77
2021/12/19 04:01:58;;;;;;;4.80;1.20;;;8.60;94.00;;;;;;5073119;28;20036;-76
2021/12/19 04:04:24;;;;;;;3.80;1.00;;;8.60;94.20;;;;;;5072965;28;20103;-76
2021/12/19 04:06:50;;;;;;;6.78;1.40;;;8.50;94.20;;;;;;5073442;28;20024;-76
2021/12/19 04:09:16;;;;;;;2.45;1.20;;;8.50;94.60;;;;;;5054741;28;20396;-76
2021/12/19 04:11:58;;;;;;;4.43;1.27;;;8.40;94.30;;;;;;5072997;28;20025;-77
2021/12/19 04:14:24;;;;;;;4.05;1.02;;;8.40;94.60;;;;;;5072772;28;20040;-77
2021/12/19 04:16:50;;;;;;;5.23;1.43;;;8.40;94.50;;;;;;5091738;28;20071;-77
2021/12/19 04:19:20;;;;;;;4.32;1.20;;;8.50;94.40;;;;;;5093394;28;20024;-76
2021/12/19 04:21:46;;;;;;;4.65;1.40;;;8.50;94.20;;;;;;5074625;28;20130;-76
2021/12/19 04:24:12;;;;;;;2.47;1.10;;;8.60;94.00;;;;;;5074711;28;20024;-77
2021/12/19 04:26:39;;;;;;;4.05;1.02;;;8.60;93.60;;;;;;5093077;28;20087;-76
2021/12/19 04:29:05;;;;;;;2.65;1.13;;;8.60;93.40;;;;;;5092859;28;20020;-77
2021/12/19 04:31:32;;;;;;;2.33;1.00;;;8.70;93.30;;;;;;5075239;28;20020;-77
2021/12/19 04:33:58;;;;;;;3.72;1.17;;;8.50;93.50;;;;;;5092715;28;20028;-77
2021/12/19 04:36:31;;;;;;;4.30;1.27;;;8.50;94.00;;;;;;5092735;28;20032;-77
2021/12/19 04:42:44;;;;;;;5.20;1.50;;;8.40;94.40;;;;;;5092759;28;20093;-79
2021/12/19 04:55:41;;;;;;;2.97;1.30;;;8.20;95.00;;;;;;5092483;28;20081;-77
2021/12/19 05:00:43;;;;;;;5.72;1.23;;;8.10;95.20;;;;;;5092259;28;20039;-79
2021/12/19 05:14:21;;;;;;;4.13;1.10;;;8.00;94.90;;;;;;5092168;28;20050;-76
2021/12/19 05:16:50;;;;;;;4.82;1.25;;;7.90;95.30;;;;;;5074134;28;20107;-76
2021/12/19 05:21:45;;;;;;;3.80;1.30;;;7.90;95.70;;;;;;5092437;28;20342;-76
2021/12/19 05:24:44;;;;;;;6.13;1.25;;;8.00;94.80;;;;;;5096248;28;20165;-77
2021/12/19 05:27:08;;;;;;;3.63;1.08;;;8.00;95.10;;;;;;5095729;28;20044;-76
2021/12/19 05:29:36;;;;;;;4.57;1.27;;;7.90;95.40;;;;;;5096575;28;20051;-77
2021/12/19 05:32:03;;;;;;;4.10;1.33;;;8.00;95.80;;;;;;5096650;28;20202;-77
2021/12/19 05:34:30;;;;;;;4.47;1.00;;;8.00;95.60;;;;;;5078366;28;20028;-77
2021/12/19 05:45:13;;;;;;;3.97;1.23;;;8.00;95.40;;;;;;5096117;28;20097;-76
2021/12/19 05:47:41;;;;;;;4.20;1.05;;;8.00;95.40;;;;;;5096284;28;20028;-77
2021/12/19 05:50:08;;;;;;;5.97;1.20;;;8.00;94.90;;;;;;5077487;28;20376;-76
2021/12/19 05:52:38;;;;;;;5.30;1.10;;;8.10;94.40;;;;;;5060720;28;20036;-77
2021/12/19 05:55:04;;;;;;;7.18;1.25;;;8.10;94.50;;;;;;5095511;28;20020;-76
2021/12/19 05:57:30;;;;;;;3.28;1.17;;;8.10;94.60;;;;;;5095709;28;20031;-77
2021/12/19 05:59:57;;;;;;;5.90;1.48;;;8.10;94.70;;;;;;5096039;28;20356;-76
2021/12/19 06:02:23;;;;;;;5.70;1.40;;;8.10;94.70;;;;;;5095745;28;20050;-77
2021/12/19 06:04:50;;;;;;;3.58;1.30;;;8.20;94.40;;;;;;5095456;28;20020;-76
2021/12/19 06:07:16;;;;;;;7.32;1.30;;;8.20;94.20;;;;;;5096089;28;20027;-77
2021/12/19 06:09:42;;;;;;;3.70;1.23;;;8.30;94.00;;;;;;5095880;28;20066;-77
2021/12/19 06:12:08;;;;;;;2.87;1.30;;;8.30;93.90;;;;;;5095192;28;20105;-77
2021/12/19 06:14:34;;;;;;;4.13;1.30;;;8.40;93.80;;;;;;5095295;28;20392;-78
2021/12/19 06:17:02;;;;;;;2.85;0.98;;;8.30;94.00;;;;;;5076972;28;20475;-77
2021/12/19 06:19:30;;;;;;;4.28;1.30;;;8.20;94.10;;;;;;5095137;28;20414;-76
2021/12/19 06:21:56;;;;;;;3.83;1.17;;;8.20;94.30;;;;;;5094622;28;20463;-76
2021/12/19 06:24:22;;;;;;;1.98;0.95;;;8.20;94.30;;;;;;5095015;28;20149;-76
2021/12/19 06:26:48;;;;;;;2.92;1.08;;;8.20;94.40;;;;;;5094914;28;20028;-76
2021/12/19 06:29:14;;;;;;;2.63;1.00;;;8.20;94.30;;;;;;5095397;28;20441;-76
2021/12/19 06:31:40;;;;;;;3.15;1.30;;;8.30;94.30;;;;;;5095383;28;20024;-76
2021/12/19 06:34:07;;;;;;;3.92;1.08;;;8.50;94.10;;;;;;5094979;28;20024;-76
2021/12/19 06:36:33;;;;;;;5.93;1.23;;;8.60;94.10;;;;;;5076092;28;20417;-74
2021/12/19 06:39:02;;;;;;;3.55;1.20;;;9.00;93.70;;;;;;5094637;28;20063;-75
2021/12/19 06:41:28;;;;;;;4.28;1.25;;;9.60;93.60;;;;;;5094718;28;20036;-76
2021/12/19 06:43:54;;;;;;;5.18;1.13;;;10.30;92.60;;;;;;5094803;28;20050;-75
2021/12/19 06:46:26;;;;;;;3.93;1.40;;;11.10;92.10;;;;;;5094768;28;20040;-75
2021/12/19 06:48:52;;;;;;;2.78;1.00;;;11.90;91.30;;;;;;5094646;28;20140;-76
2021/12/19 06:51:18;;;;;;;4.78;1.17;;;12.80;90.10;;;;;;5095179;28;20556;-76
2021/12/19 06:53:45;;;;;;;5.80;1.23;;;13.50;88.10;;;;;;5094956;28;20016;-75
2021/12/19 06:56:11;;;;;;;5.73;1.10;;;14.20;86.20;;;;;;5095073;28;20333;-75
2021/12/19 06:58:37;;;;;;;7.13;1.20;;;14.40;83.00;;;;;;5076232;28;20048;-75
2021/12/19 07:01:06;;;;;;;6.30;1.00;;;14.60;83.20;;;;;;5094924;28;20024;-75
2021/12/19 07:03:33;;;;;;;2.80;1.00;;;15.30;82.30;;;;;;5094373;28;20675;-75
2021/12/19 07:06:01;;;;;;;5.97;1.25;;;15.80;80.60;;;;;;5076445;28;20051;-75
2021/12/19 07:08:28;;;;;;;4.57;1.20;;;16.20;79.40;;;;;;5094959;28;20043;-75
2021/12/19 07:10:54;;;;;;;5.18;1.33;;;16.50;78.70;;;;;;5094566;28;20479;-75
2021/12/19 07:13:21;;;;;;;4.55;1.23;;;16.80;77.40;;;;;;5093911;28;20119;-76
2021/12/19 07:15:52;;;;;;;4.10;1.30;;;17.10;76.80;;;;;;5076439;28;20032;-75
2021/12/19 07:18:19;;;;;;;3.45;1.15;;;17.40;75.70;;;;;;5094506;28;20023;-76
2021/12/19 07:20:45;;;;;;;3.40;0.90;;;17.40;75.80;;;;;;5093912;28;20023;-75
2021/12/19 07:23:17;;;;;;;2.42;0.93;;;17.50;75.00;;;;;;5093603;28;20047;-75
2021/12/19 07:25:43;;;;;;;4.32;1.20;;;17.80;73.40;;;;;;5094356;28;20048;-76
2021/12/19 07:28:10;;;;;;;4.32;0.93;;;17.40;73.20;;;;;;5093790;28;20095;-75
2021/12/19 07:30:37;;;;;;;5.43;1.20;;;17.70;73.10;;;;;;5093865;28;20024;-77
2021/12/19 07:33:09;;;;;;;2.33;1.05;;;17.80;71.90;;;;;;5075748;28;20460;-75
2021/12/19 07:35:38;;;;;;;4.35;1.17;;;17.70;72.90;;;;;;5093978;28;20025;-77
2021/12/19 07:39:05;;;;;;;3.08;1.10;;;16.30;74.70;;;;;;5093418;28;20099;-71
2021/12/19 07:41:31;;;;;;;4.32;1.02;;;16.00;76.80;;;;;;5090545;28;20128;-71
2021/12/19 07:43:57;;;;;;;9.63;1.20;;;15.80;76.30;;;;;;5075462;28;20034;-75
2021/12/19 07:46:24;;;;;;;6.15;1.30;;;15.50;77.40;;;;;;5093418;28;20027;-75
2021/12/19 07:48:50;;;;;;;3.97;1.17;;;15.10;78.40;;;;;;5093959;28;20050;-75
2021/12/19 07:51:16;;;;;;;4.30;1.23;;;14.30;80.30;;;;;;5093470;28;20031;-74
2021/12/19 07:54:01;;;;;;;6.35;1.45;;;14.00;80.40;;;;;;5093941;28;20103;-75
2021/12/19 07:56:28;;;;;;;2.93;1.20;;;13.80;81.50;;;;;;5093392;28;20474;-75
2021/12/19 07:58:54;;;;;;;5.38;1.38;;;13.60;81.90;;;;;;5093242;28;20104;-75
2021/12/19 08:01:20;;;;;;;6.10;1.30;;;13.60;81.40;;;;;;5093135;28;20031;-75
2021/12/19 08:03:46;;;;;;;3.90;1.00;;;13.90;81.20;;;;;;5074905;28;20028;-75
2021/12/19 08:06:12;;;;;;;2.97;1.10;;;13.60;80.50;;;;;;5093149;28;20277;-75
2021/12/19 08:08:38;;;;;;;6.07;1.20;;;13.50;81.30;;;;;;5093666;28;20448;-75
2021/12/19 08:13:49;;;;;;;5.72;1.15;;;13.60;81.30;;;;;;5092644;28;20411;-75
2021/12/19 08:16:15;;;;;;;6.73;1.10;;;13.80;83.10;;;;;;5093021;28;20089;-75
2021/12/19 08:18:41;;;;;;;5.13;1.10;;;13.70;82.10;;;;;;5074928;28;20270;-74
2021/12/19 08:21:07;;;;;;;5.03;1.20;;;13.10;84.00;;;;;;5092992;28;20062;-74
2021/12/19 08:23:35;;;;;;;5.15;1.42;;;13.10;84.10;;;;;;5074513;28;20468;-74
2021/12/19 08:26:02;;;;;;;4.10;1.20;;;12.90;83.90;;;;;;5092725;28;20333;-74
2021/12/19 08:28:28;;;;;;;;;;;12.70;84.50;;;;;;5074746;28;20209;-73
2021/12/19 08:30:56;;;;;;;3.30;1.30;;;12.70;84.50;;;;;;5074252;28;20006;-74
2021/12/19 08:33:23;;;;;;;59.83;3.97;;;12.90;84.20;;;;;;5074745;28;20046;-75
2021/12/19 08:35:49;;;;;;;3.88;1.10;;;13.00;85.50;;;;;;5074540;28;20056;-72
2021/12/19 08:38:20;;;;;;;4.57;1.23;;;13.00;84.00;;;;;;5092437;28;20096;-73
2021/12/19 08:40:48;;;;;;;3.17;1.30;;;13.10;83.40;;;;;;5092733;28;20117;-75
2021/12/19 08:43:15;;;;;;;5.50;1.70;;;13.00;84.40;;;;;;5092523;28;20417;-72
2021/12/19 08:45:41;;;;;;;4.85;1.77;;;13.20;84.40;;;;;;5092273;28;20334;-75
2021/12/19 08:48:07;;;;;;;5.50;2.00;;;13.20;83.70;;;;;;5092475;28;20060;-76
2021/12/19 08:50:35;;;;;;;9.17;2.07;;;13.20;84.00;;;;;;5092391;28;20020;-74
2021/12/19 08:53:02;;;;;;;5.85;1.70;;;13.20;85.60;;;;;;5092100;28;20147;-76
2021/12/19 08:55:28;;;;;;;4.53;1.80;;;13.30;84.00;;;;;;5092409;28;20025;-75
2021/12/19 08:57:58;;;;;;;6.18;1.77;;;13.60;83.30;;;;;;5092772;28;20470;-75
2021/12/19 09:00:25;;;;;;;4.68;1.58;;;13.70;81.90;;;;;;5092293;28;20016;-71
2021/12/19 09:02:57;;;;;;;5.88;1.80;;;13.70;82.30;;;;;;5092179;28;20055;-75
2021/12/19 09:05:28;;;;;;;4.97;1.50;;;13.70;82.30;;;;;;5074657;28;20479;-75
2021/12/19 09:07:55;;;;;;;6.25;1.50;;;14.00;82.60;;;;;;5092225;28;20127;-75
2021/12/19 09:10:21;;;;;;;5.43;2.38;;;13.70;81.60;;;;;;5073776;28;20499;-75
2021/12/19 09:12:49;;;;;;;8.18;2.05;;;13.80;83.00;;;;;;5092315;28;20497;-75
2021/12/19 09:15:15;;;;;;;4.35;1.70;;;13.70;83.00;;;;;;5092292;28;20081;-75
2021/12/19 09:17:41;;;;;;;5.55;1.83;;;13.90;83.60;;;;;;5091992;28;20372;-74
2021/12/19 09:20:12;;;;;;;5.22;2.00;;;14.00;83.30;;;;;;5073919;28;20032;-75
2021/12/19 09:22:38;;;;;;;6.97;1.65;;;14.10;81.70;;;;;;5073471;28;20028;-75
2021/12/19 09:25:09;;;;;;;6.13;1.48;;;14.20;81.90;;;;;;5091910;28;20413;-74
2021/12/19 09:27:35;;;;;;;6.68;2.38;;;13.90;82.60;;;;;;5073451;28;20063;-74
2021/12/19 09:30:14;;;;;;;5.93;1.65;;;13.80;83.00;;;;;;5091716;28;20028;-75
2021/12/19 09:32:49;;;;;;;5.22;1.67;;;13.80;82.20;;;;;;5073652;28;20124;-75
2021/12/19 09:35:16;;;;;;;4.68;1.45;;;13.20;82.60;;;;;;5091821;28;20020;-77
2021/12/19 09:37:45;;;;;;;6.35;2.00;;;13.10;84.20;;;;;;5092479;28;20019;-75
2021/12/19 09:40:17;;;;;;;4.75;1.83;;;12.90;85.40;;;;;;5073676;28;20123;-74
2021/12/19 09:42:48;;;;;;;4.75;1.80;;;13.10;85.90;;;;;;5091758;28;20044;-78
2021/12/19 09:45:15;;;;;;;5.85;1.70;;;13.20;86.00;;;;;;5092726;28;20028;-74
2021/12/19 09:47:50;;;;;;;5.32;1.83;;;13.20;86.40;;;;;;5092072;28;20027;-74
2021/12/19 09:50:17;;;;;;;7.43;1.70;;;13.60;85.40;;;;;;5091956;28;20024;-70
2021/12/19 09:52:44;;;;;;;7.05;1.70;;;13.70;85.00;;;;;;5092220;28;20016;-74
2021/12/19 09:55:10;;;;;;;6.22;1.70;;;13.70;85.60;;;;;;5092219;28;20526;-74
2021/12/19 09:57:36;;;;;;;6.57;1.88;;;13.90;85.60;;;;;;5091402;28;20031;-76
2021/12/19 10:00:04;;;;;;;;;;;14.10;84.20;;;;;;5090322;28;20033;-75
2021/12/19 10:02:30;;;;;;;8.80;1.63;;;14.00;84.50;;;;;;5090701;28;19912;-75
2021/12/19 10:05:23;;;;;;;4.13;1.40;;;13.70;85.70;;;;;;5091057;28;20089;-76
2021/12/19 10:08:01;;;;;;;4.18;1.48;;;13.50;85.60;;;;;;5091271;28;20337;-74
2021/12/19 10:11:12;;;;;;;3.78;1.60;;;13.50;85.10;;;;;;5094833;28;20432;-77
2021/12/19 10:13:38;;;;;;;5.22;1.77;;;13.50;84.70;;;;;;4993083;28;20042;-74
2021/12/19 10:16:43;;;;;;;6.37;1.60;;;13.40;86.50;;;;;;4993432;28;20065;-75
2021/12/19 10:19:12;;;;;;;8.27;1.70;;;13.50;85.90;;;;;;4993038;28;20105;-76
2021/12/19 10:21:38;;;;;;;5.68;1.60;;;13.40;85.90;;;;;;4993185;28;20041;-76
2021/12/19 10:24:06;;;;;;;4.87;1.13;;;13.50;86.20;;;;;;4993523;28;20050;-75
2021/12/19 10:26:47;;;;;;;5.18;1.52;;;13.40;85.60;;;;;;4993213;28;20117;-75
2021/12/19 10:29:16;;;;;;;5.55;1.40;;;13.30;86.10;;;;;;4977301;28;20498;-75
2021/12/19 10:31:42;;;;;;;5.18;1.55;;;13.30;87.10;;;;;;4993316;28;20140;-73
2021/12/19 10:34:46;;;;;;;4.43;1.47;;;13.40;86.50;;;;;;4993397;28;20034;-74
2021/12/19 10:37:12;;;;;;;3.58;1.45;;;13.50;86.10;;;;;;4993346;28;20069;-73
2021/12/19 10:39:42;;;;;;;4.88;1.63;;;13.50;85.80;;;;;;4992957;28;20030;-72
2021/12/19 10:42:10;;;;;;;4.63;1.80;;;13.50;86.50;;;;;;4992679;28;20380;-73
2021/12/19 10:47:25;;;;;;;4.55;1.60;;;13.40;84.80;;;;;;4993439;28;20080;-73
2021/12/19 10:49:55;;;;;;;4.72;1.30;;;13.40;84.10;;;;;;5034139;28;20040;-73
2021/12/19 10:52:38;;;;;;;3.78;1.52;;;13.30;84.50;;;;;;5094349;28;20024;-70
2021/12/19 10:55:10;;;;;;;8.65;1.80;;;13.50;84.40;;;;;;5094643;28;20118;-75
2021/12/19 10:57:41;;;;;;;4.68;1.58;;;13.80;84.30;;;;;;5095146;28;20024;-74
2021/12/19 11:00:11;;;;;;;5.28;1.55;;;13.90;84.20;;;;;;5094569;28;20032;-74
2021/12/19 11:02:57;;;;;;;7.68;1.50;;;13.80;84.50;;;;;;5094586;28;20503;-74
2021/12/19 11:05:35;;;;;;;5.63;1.42;;;13.70;83.90;;;;;;5094491;28;20032;-74
2021/12/19 11:08:08;;;;;;;3.05;1.60;;;14.10;84.50;;;;;;5094755;28;20027;-74
2021/12/19 11:10:35;;;;;;;2.97;1.30;;;14.20;83.40;;;;;;5094173;28;20032;-75
2021/12/19 11:13:14;;;;;;;5.82;1.70;;;14.30;82.50;;;;;;5093744;28;20090;-76
2021/12/19 11:15:44;;;;;;;4.82;1.63;;;14.40;82.80;;;;;;5094403;28;20066;-75
2021/12/19 11:18:11;;;;;;;4.18;1.88;;;14.50;82.40;;;;;;5094144;28;20046;-80
2021/12/19 11:20:38;;;;;;;4.63;1.83;;;14.60;84.20;;;;;;5093079;28;20024;-80
2021/12/19 11:23:04;;;;;;;5.18;1.90;;;14.70;84.80;;;;;;5094058;28;20036;-73
2021/12/19 11:25:30;;;;;;;7.33;2.57;;;14.80;82.30;;;;;;5094023;28;20023;-74
2021/12/19 11:27:57;;;;;;;8.07;2.20;;;15.00;86.20;;;;;;5093925;28;20266;-73
2021/12/19 11:30:25;;;;;;;;;;;15.30;82.80;;;;;;5094207;28;20026;-74
2021/12/19 11:32:59;;;;;;;5.70;1.90;;;15.40;82.20;;;;;;5075646;28;19904;-72
2021/12/19 11:35:28;;;;;;;7.75;1.80;;;15.60;81.40;;;;;;5093784;28;20032;-78
2021/12/19 11:37:59;;;;;;;7.30;2.20;;;15.50;83.10;;;;;;5075247;28;20437;-74
2021/12/19 11:40:32;;;;;;;6.05;1.83;;;15.50;79.50;;;;;;5093579;28;20016;-77
2021/12/19 11:43:09;;;;;;;6.18;1.85;;;15.40;81.30;;;;;;5093780;28;20193;-74
2021/12/19 11:45:41;;;;;;;6.80;1.75;;;15.20;81.20;;;;;;5093711;28;20501;-73
2021/12/19 11:48:32;;;;;;;4.57;1.50;;;14.70;80.80;;;;;;5093877;28;20020;-72
2021/12/19 11:51:01;;;;;;;4.38;1.50;;;14.80;80.80;;;;;;5074835;28;20460;-74
2021/12/19 11:53:41;;;;;;;5.78;1.73;;;14.70;81.30;;;;;;5092391;28;20024;-71
2021/12/19 11:56:30;;;;;;;4.50;1.20;;;14.80;82.00;;;;;;5093369;28;20104;-72
2021/12/19 11:58:56;;;;;;;4.85;1.55;;;14.90;82.40;;;;;;5055096;28;20032;-72
2021/12/19 12:01:24;;;;;;;3.70;1.60;;;14.90;81.30;;;;;;5073264;28;20027;-72
2021/12/19 12:04:04;;;;;;;5.28;1.55;;;14.80;82.40;;;;;;5054892;28;20266;-72
2021/12/19 12:06:39;;;;;;;5.57;1.40;;;14.70;81.70;;;;;;5054903;28;20136;-72
2021/12/19 12:09:07;;;;;;;3.53;1.70;;;14.60;83.40;;;;;;5078442;28;20077;-73
2021/12/19 12:11:35;;;;;;;5.28;1.95;;;14.80;84.90;;;;;;5074568;28;20081;-73
2021/12/19 12:14:30;;;;;;;5.18;2.05;;;15.10;83.20;;;;;;5092975;28;20044;-72
2021/12/19 12:17:01;;;;;;;6.88;1.52;;;15.30;83.60;;;;;;5083991;28;20546;-73
2021/12/19 12:19:49;;;;;;;5.63;1.45;;;15.50;81.00;;;;;;5092942;28;20069;-72
2021/12/19 12:22:24;;;;;;;10.00;1.50;;;15.00;83.30;;;;;;5093011;28;20508;-72
2021/12/19 12:25:17;;;;;;;4.88;1.75;;;14.90;82.30;;;;;;5092679;28;20026;-73
2021/12/19 12:27:52;;;;;;;5.50;1.50;;;14.90;82.30;;;;;;5089479;28;20085;-73
2021/12/19 12:30:26;;;;;;;5.82;1.45;;;14.80;82.70;;;;;;5093075;28;20026;-74
2021/12/19 12:32:53;;;;;;;4.50;1.58;;;14.70;83.50;;;;;;5092562;28;20489;-73
2021/12/19 12:35:20;;;;;;;3.80;1.70;;;14.70;83.50;;;;;;5092721;28;20417;-73
2021/12/19 12:37:48;;;;;;;4.05;1.30;;;14.80;85.30;;;;;;5092506;28;20984;-73
2021/12/19 12:40:29;;;;;;;4.88;1.40;;;14.60;84.50;;;;;;5092391;28;20503;-73
2021/12/19 12:43:08;;;;;;;4.95;1.48;;;14.60;83.50;;;;;;5074420;28;20040;-73
2021/12/19 12:45:54;;;;;;;6.60;1.52;;;14.60;85.10;;;;;;5092952;28;20027;-73
2021/12/19 12:48:48;;;;;;;3.35;1.38;;;14.70;88.60;;;;;;5092468;28;20499;-73
2021/12/19 12:51:36;;;;;;;4.75;1.52;;;15.00;84.70;;;;;;5091673;28;20039;-73
2021/12/19 12:54:21;;;;;;;3.28;1.15;;;15.50;86.90;;;;;;5032257;28;20025;-73
2021/12/19 12:56:53;;;;;;;4.35;1.42;;;15.60;82.10;;;;;;5054221;28;20024;-74
2021/12/19 12:59:29;;;;;;;4.20;1.25;;;15.50;81.50;;;;;;5071804;28;20071;-73
2021/12/19 13:02:12;;;;;;;3.28;1.50;;;15.70;81.00;;;;;;5072783;28;20105;-73
2021/12/19 13:04:46;;;;;;;3.47;1.42;;;15.50;82.40;;;;;;5072663;28;20052;-73
2021/12/19 13:07:21;;;;;;;4.00;1.40;;;15.40;81.90;;;;;;5054532;28;20055;-74
2021/12/19 13:10:00;;;;;;;4.80;1.27;;;15.00;83.60;;;;;;5072006;28;20024;-74
2021/12/19 13:12:28;;;;;;;5.57;1.55;;;14.80;83.50;;;;;;5072155;28;20043;-74
2021/12/19 13:15:04;;;;;;;8.20;1.60;;;14.80;86.50;;;;;;5050821;28;20105;-73
2021/12/19 13:17:34;;;;;;;6.03;1.70;;;14.90;84.10;;;;;;5072153;28;20025;-73
2021/12/19 13:20:06;;;;;;;5.15;1.63;;;14.90;83.90;;;;;;5072425;28;20021;-73
2021/12/19 13:22:48;;;;;;;3.85;1.50;;;15.00;84.90;;;;;;5071769;28;20083;-72
2021/12/19 13:25:27;;;;;;;3.45;1.38;;;14.90;82.70;;;;;;5072449;28;20028;-73
2021/12/19 13:28:05;;;;;;;5.03;1.35;;;14.80;83.40;;;;;;5071358;28;20036;-73
2021/12/19 13:30:38;;;;;;;8.77;2.28;;;14.70;83.50;;;;;;5072178;28;20034;-74
2021/12/19 13:33:14;;;;;;;4.63;1.08;;;14.70;84.40;;;;;;5071448;28;20036;-72
2021/12/19 13:36:06;;;;;;;5.28;1.48;;;14.70;83.80;;;;;;5072147;28;20033;-73
2021/12/19 13:38:32;;;;;;;5.40;1.50;;;14.60;84.90;;;;;;5067950;28;20120;-74
2021/12/19 13:41:03;;;;;;;7.70;1.70;;;14.60;85.20;;;;;;5071693;28;20066;-74
2021/12/19 13:43:32;;;;;;;4.85;1.40;;;14.70;88.50;;;;;;5073472;28;20730;-75
2021/12/19 13:46:13;;;;;;;6.25;1.60;;;14.90;85.30;;;;;;5058474;28;20025;-73
2021/12/19 13:48:51;;;;;;;3.47;1.25;;;15.00;85.20;;;;;;5074961;28;20033;-74
2021/12/19 13:51:23;;;;;;;5.30;1.52;;;15.00;85.80;;;;;;5075470;28;20109;-74
2021/12/19 13:53:54;;;;;;;3.30;1.30;;;15.00;86.70;;;;;;5057370;28;20024;-74
2021/12/19 13:56:26;;;;;;;2.85;1.30;;;14.90;87.20;;;;;;5057276;28;20028;-73
2021/12/19 13:58:56;;;;;;;6.05;1.85;;;14.90;87.80;;;;;;5075805;28;20021;-73
2021/12/19 14:01:27;;;;;;;3.38;1.45;;;15.00;88.30;;;;;;5075315;28;20036;-72
2021/12/19 14:03:58;;;;;;;5.45;1.50;;;14.90;89.00;;;;;;5075125;28;20511;-73
2021/12/19 14:06:29;;;;;;;5.38;1.58;;;15.00;87.80;;;;;;5075899;28;20367;-73
2021/12/19 14:09:16;;;;;;;6.45;1.55;;;14.80;88.50;;;;;;5082547;28;20090;-73
2021/12/19 14:11:45;;;;;;;3.47;1.35;;;14.60;89.30;;;;;;5095516;28;20432;-73
2021/12/19 14:14:29;;;;;;;3.72;1.30;;;14.70;90.40;;;;;;5094999;28;20074;-76